Startpagina
METAR-TAF:

METAR-TAF

Vliegvelden :

Paso de los Libres, Argentinië

breedte: 29-41S, lengte: 057-09W, hoogte: 69 m

Actueel weer

Dit bericht is 43 minuten geleden gemaakt, om 18:00 UTC
Wind 14 kt uit het westen
Temperatuur 26°C
Vochtigheid 79%
Druk 1011 hPa
Zicht 10 km of meer
Gebroken wolken op 1500 ft
Gebroken wolken op 10000 ft
Gebroken wolken op 20000 ft

METAR: SARL 181800Z 27014KT 9999 BKN015 BKN100 BKN200 26/22 Q1011 REDZ

Tijdstip: 15:43 (18:43 UTC)


TAF: ontbreekt

Waarnemingen en weersverwachtingen van meer dan 4000 vliegvelden (METAR en TAF).

De beschikbare stations zijn de gele en rode punten op de kaart.

Ga met uw muis naar het station om de naam te zien.

Klik dan om waarnemingen en weersverwachtingen te zien.

kaart wijzigen: klik op de groene knoppen met een zwart kruis om in te zoomen, op de groene knop met een streepje om uit te zoomen of op de groene pijlen voor aangrenzende kaarten.


METAR-TAF: